createdAt,value
2023-03-31T06:45:22.348Z,988.00
2023-03-31T06:46:22.349Z,1060.00
2023-03-31T06:47:22.287Z,1148.00
2023-03-31T06:48:22.219Z,1248.00
2023-03-31T06:49:22.237Z,1280.00
2023-03-31T06:50:22.339Z,1140.00
2023-03-31T06:51:22.269Z,980.00
2023-03-31T06:52:22.192Z,972.00
2023-03-31T06:53:22.274Z,1028.00
2023-03-31T06:54:22.154Z,1104.00
2023-03-31T06:55:22.172Z,1168.00
2023-03-31T06:56:22.203Z,948.00
2023-03-31T06:57:22.355Z,708.00
2023-03-31T06:58:22.119Z,620.00
2023-03-31T06:59:22.151Z,584.00
2023-03-31T07:00:23.253Z,628.00
2023-03-31T07:01:22.152Z,712.00
2023-03-31T07:02:22.224Z,764.00
2023-03-31T07:03:22.195Z,728.00
2023-03-31T07:04:22.136Z,764.00
2023-03-31T07:05:22.034Z,772.00
2023-03-31T07:06:22.095Z,792.00
2023-03-31T07:07:22.038Z,960.00
2023-03-31T07:08:22.018Z,1000.00
2023-03-31T07:09:22.008Z,1016.00
2023-03-31T07:10:22.068Z,1024.00
2023-03-31T07:11:22.002Z,936.00
2023-03-31T07:12:21.968Z,936.00
2023-03-31T07:13:22.002Z,916.00
2023-03-31T07:14:21.919Z,828.00
2023-03-31T07:15:21.937Z,820.00
2023-03-31T07:16:21.927Z,908.00
2023-03-31T07:17:22.080Z,780.00
2023-03-31T07:18:22.605Z,760.00
2023-03-31T07:19:22.444Z,712.00
2023-03-31T07:20:21.884Z,760.00
2023-03-31T07:21:21.947Z,820.00
2023-03-31T07:22:21.866Z,988.00
2023-03-31T07:23:21.852Z,1252.00
2023-03-31T07:24:21.841Z,1324.00
2023-03-31T07:25:21.903Z,1528.00
2023-03-31T07:26:21.800Z,1568.00
2023-03-31T07:27:23.585Z,1672.00
2023-03-31T07:28:21.777Z,1748.00
2023-03-31T07:29:21.785Z,1508.00
2023-03-31T07:30:21.764Z,1260.00
2023-03-31T07:31:21.784Z,1052.00
2023-03-31T07:32:21.745Z,1068.00
2023-03-31T07:33:21.756Z,1084.00
2023-03-31T07:34:21.728Z,1100.00
2023-03-31T07:35:21.704Z,1280.00
2023-03-31T07:36:22.088Z,1540.00
2023-03-31T07:37:21.692Z,1588.00
2023-03-31T07:38:21.753Z,1832.00
2023-03-31T07:39:21.748Z,2028.00
2023-03-31T07:40:21.662Z,1392.00
2023-03-31T07:41:21.679Z,1224.00
2023-03-31T07:42:21.630Z,1948.00
2023-03-31T07:43:21.651Z,1840.00
2023-03-31T07:44:21.664Z,1748.00
2023-03-31T07:45:21.609Z,1812.00
2023-03-31T07:46:21.658Z,1456.00
2023-03-31T07:47:21.596Z,1848.00
2023-03-31T07:48:21.558Z,2272.00
2023-03-31T07:49:21.612Z,2428.00
2023-03-31T07:50:21.540Z,2076.00
2023-03-31T07:51:21.536Z,1940.00
2023-03-31T07:52:21.633Z,2116.00
2023-03-31T07:53:21.541Z,1816.00
2023-03-31T07:54:21.639Z,1716.00
2023-03-31T07:55:21.501Z,2116.00
2023-03-31T07:56:21.453Z,2440.00
2023-03-31T07:57:21.562Z,2556.00
2023-03-31T07:58:21.576Z,2704.00
2023-03-31T07:59:22.259Z,2844.00
2023-03-31T08:00:21.456Z,2752.00
2023-03-31T08:01:21.472Z,2916.00
2023-03-31T08:02:21.558Z,2816.00
2023-03-31T08:03:21.454Z,2972.00
2023-03-31T08:04:21.436Z,3780.00
2023-03-31T08:05:21.380Z,3564.00
2023-03-31T08:06:21.419Z,3384.00
2023-03-31T08:07:21.366Z,3596.00
2023-03-31T08:08:21.349Z,3704.00
2023-03-31T08:09:21.357Z,3240.00
2023-03-31T08:10:21.332Z,3052.00
2023-03-31T08:11:21.483Z,3540.00
2023-03-31T08:12:21.282Z,3904.00
2023-03-31T08:13:21.344Z,4080.00
2023-03-31T08:14:30.319Z,4164.00
2023-03-31T08:15:22.506Z,3852.00
2023-03-31T08:16:21.414Z,3672.00
2023-03-31T08:17:21.243Z,4196.00
2023-03-31T08:18:21.231Z,4188.00
2023-03-31T08:19:21.275Z,3844.00
2023-03-31T08:20:22.106Z,3644.00
2023-03-31T08:21:23.757Z,3028.00
2023-03-31T08:22:21.224Z,2904.00
2023-03-31T08:23:21.171Z,3584.00
2023-03-31T08:24:21.181Z,4168.00
2023-03-31T08:25:21.156Z,4496.00
2023-03-31T08:26:21.439Z,4880.00
2023-03-31T08:27:21.189Z,5064.00
2023-03-31T08:28:21.361Z,5524.00
2023-03-31T08:29:21.348Z,5112.00
2023-03-31T08:30:21.149Z,5420.00
2023-03-31T08:31:21.101Z,5380.00
2023-03-31T08:32:21.068Z,4644.00
2023-03-31T08:33:21.040Z,3296.00
2023-03-31T08:34:21.113Z,3072.00
2023-03-31T08:35:21.071Z,2644.00
2023-03-31T08:36:21.086Z,2332.00
2023-03-31T08:37:21.111Z,2224.00
2023-03-31T08:38:21.041Z,1672.00
2023-03-31T08:39:21.212Z,1656.00
2023-03-31T08:40:21.765Z,3108.00
2023-03-31T08:41:21.000Z,2404.00
2023-03-31T08:42:20.982Z,3588.00
2023-03-31T08:43:21.061Z,3996.00
2023-03-31T08:44:21.072Z,4088.00
2023-03-31T08:45:21.613Z,3712.00
2023-03-31T08:46:21.077Z,3124.00
2023-03-31T08:47:20.890Z,3192.00
2023-03-31T08:48:21.133Z,2644.00
2023-03-31T08:49:20.859Z,3204.00
2023-03-31T08:50:20.882Z,4216.00
2023-03-31T08:51:20.876Z,4068.00
2023-03-31T08:52:20.862Z,3316.00
2023-03-31T08:53:20.814Z,4984.00
2023-03-31T08:54:22.145Z,5444.00
2023-03-31T08:55:20.970Z,5424.00
2023-03-31T08:56:20.919Z,5312.00
2023-03-31T08:57:21.166Z,5556.00
2023-03-31T08:58:20.966Z,5208.00
2023-03-31T08:59:20.971Z,5396.00
2023-03-31T09:00:20.902Z,5820.00
2023-03-31T09:01:20.872Z,5388.00
2023-03-31T09:02:20.885Z,4904.00
2023-03-31T09:03:20.864Z,6772.00
2023-03-31T09:04:20.846Z,6164.00
2023-03-31T09:05:20.702Z,6008.00
2023-03-31T09:06:20.860Z,6032.00
2023-03-31T09:07:20.735Z,6056.00
2023-03-31T09:08:20.713Z,7112.00
2023-03-31T09:09:20.632Z,5640.00
2023-03-31T09:10:20.700Z,4060.00
2023-03-31T09:11:20.668Z,4144.00
2023-03-31T09:12:20.690Z,4360.00
2023-03-31T09:13:20.724Z,4844.00
2023-03-31T09:14:20.643Z,6276.00
2023-03-31T09:15:20.714Z,8024.00
2023-03-31T09:16:20.748Z,8444.00
2023-03-31T09:17:21.008Z,7700.00
2023-03-31T09:18:21.128Z,6580.00
2023-03-31T09:19:20.557Z,4788.00
2023-03-31T09:20:20.629Z,4580.00
2023-03-31T09:21:21.418Z,4144.00
2023-03-31T09:22:20.605Z,3640.00
2023-03-31T09:23:20.836Z,3368.00
2023-03-31T09:24:20.547Z,3344.00
2023-03-31T09:25:20.457Z,2136.00
2023-03-31T09:26:20.667Z,2352.00
2023-03-31T09:27:21.146Z,1684.00
2023-03-31T09:28:20.492Z,1612.00
2023-03-31T09:29:20.453Z,2152.00
2023-03-31T09:30:20.560Z,2556.00
2023-03-31T09:31:20.457Z,3380.00
2023-03-31T09:32:20.406Z,3924.00
2023-03-31T09:33:20.371Z,5192.00
2023-03-31T09:34:20.444Z,5456.00
2023-03-31T09:35:20.342Z,4772.00
2023-03-31T09:36:20.370Z,4604.00
2023-03-31T09:37:20.319Z,5812.00
2023-03-31T09:38:20.368Z,4428.00
2023-03-31T09:39:20.324Z,2116.00
2023-03-31T09:40:20.382Z,1884.00
2023-03-31T09:41:20.518Z,2340.00
2023-03-31T09:42:20.313Z,2952.00
2023-03-31T09:43:20.260Z,4580.00
2023-03-31T09:44:20.315Z,4276.00
2023-03-31T09:45:20.259Z,3416.00
2023-03-31T09:46:20.604Z,4520.00
2023-03-31T09:47:20.207Z,4652.00
2023-03-31T09:48:20.257Z,4372.00
2023-03-31T09:49:20.204Z,4740.00
2023-03-31T09:50:20.402Z,4240.00
2023-03-31T09:51:21.199Z,3664.00
2023-03-31T09:52:20.177Z,3632.00
2023-03-31T09:53:20.168Z,3632.00
2023-03-31T09:54:20.186Z,3268.00
2023-03-31T09:55:32.163Z,2556.00
2023-03-31T09:56:21.138Z,2728.00
2023-03-31T09:57:20.117Z,3740.00
2023-03-31T09:58:20.169Z,4412.00
2023-03-31T09:59:20.125Z,5664.00
2023-03-31T10:00:20.150Z,5616.00
2023-03-31T10:01:20.096Z,5296.00
2023-03-31T10:02:20.117Z,5344.00
2023-03-31T10:03:20.039Z,4476.00
2023-03-31T10:04:20.098Z,4588.00
2023-03-31T10:05:20.047Z,4720.00
2023-03-31T10:06:20.187Z,4428.00
2023-03-31T10:07:20.012Z,2920.00
2023-03-31T10:08:20.124Z,2812.00
2023-03-31T10:09:19.979Z,5964.00
2023-03-31T10:10:20.074Z,7364.00
2023-03-31T10:11:19.945Z,6036.00
2023-03-31T10:12:19.962Z,5200.00
2023-03-31T10:13:19.931Z,6040.00
2023-03-31T10:14:19.959Z,5540.00
2023-03-31T10:15:19.918Z,5260.00
2023-03-31T10:16:19.998Z,4156.00
2023-03-31T10:17:19.876Z,4168.00
2023-03-31T10:18:19.974Z,4520.00
2023-03-31T10:19:19.954Z,4176.00
2023-03-31T10:20:20.025Z,4132.00
2023-03-31T10:21:19.933Z,3088.00
2023-03-31T10:22:20.706Z,2024.00
2023-03-31T10:23:19.845Z,1360.00
2023-03-31T10:24:19.881Z,1020.00
2023-03-31T10:25:19.813Z,748.00
2023-03-31T10:26:19.843Z,548.00
2023-03-31T10:27:20.067Z,548.00
2023-03-31T10:28:19.963Z,1096.00
2023-03-31T10:29:19.755Z,1788.00
2023-03-31T10:30:19.785Z,2696.00
2023-03-31T10:31:19.871Z,4800.00
2023-03-31T10:32:19.879Z,5616.00
2023-03-31T10:33:23.186Z,6336.00
2023-03-31T10:34:19.857Z,6332.00
2023-03-31T10:35:19.850Z,7652.00
2023-03-31T10:36:19.830Z,7332.00
2023-03-31T10:37:19.665Z,6424.00
2023-03-31T10:38:20.016Z,7764.00
2023-03-31T10:39:19.707Z,9840.00
2023-03-31T10:40:19.760Z,8592.00
2023-03-31T10:41:19.793Z,6208.00
2023-03-31T10:42:19.938Z,5556.00
2023-03-31T10:43:19.612Z,5056.00
2023-03-31T10:44:19.663Z,2864.00
2023-03-31T10:45:33.451Z,1436.00
2023-03-31T10:46:20.777Z,996.00
2023-03-31T10:47:19.581Z,1336.00
2023-03-31T10:48:19.579Z,1884.00
2023-03-31T10:49:19.616Z,2960.00
2023-03-31T10:50:19.558Z,4768.00
2023-03-31T10:51:19.539Z,6448.00
2023-03-31T10:52:19.554Z,8560.00
2023-03-31T10:53:19.497Z,8508.00
2023-03-31T10:54:19.534Z,7664.00
2023-03-31T10:55:19.484Z,7672.00
2023-03-31T10:56:19.485Z,7320.00
2023-03-31T10:57:19.453Z,7076.00
2023-03-31T10:58:19.607Z,7616.00
2023-03-31T10:59:19.429Z,7632.00
2023-03-31T11:00:19.449Z,7928.00
2023-03-31T11:01:19.465Z,7500.00
2023-03-31T11:02:19.590Z,6708.00
2023-03-31T11:03:19.545Z,7224.00
2023-03-31T11:04:19.396Z,7412.00
2023-03-31T11:05:19.406Z,7484.00
2023-03-31T11:06:19.384Z,7260.00
2023-03-31T11:07:19.350Z,6092.00
2023-03-31T11:08:19.960Z,7276.00
2023-03-31T11:09:19.329Z,7840.00
2023-03-31T11:10:20.054Z,7252.00
2023-03-31T11:11:19.323Z,7484.00
2023-03-31T11:12:19.401Z,8696.00
2023-03-31T11:13:19.271Z,8888.00
2023-03-31T11:14:19.358Z,8996.00
2023-03-31T11:15:19.273Z,8972.00
2023-03-31T11:16:19.412Z,9228.00
2023-03-31T11:17:19.364Z,9680.00
2023-03-31T11:18:19.237Z,9472.00
2023-03-31T11:19:19.203Z,8188.00
2023-03-31T11:20:19.324Z,7776.00
2023-03-31T11:21:19.227Z,7116.00
2023-03-31T11:22:19.954Z,5752.00
2023-03-31T11:23:19.249Z,6016.00
2023-03-31T11:24:19.181Z,6484.00
2023-03-31T11:25:19.151Z,5992.00
2023-03-31T11:26:19.202Z,4708.00
2023-03-31T11:27:19.109Z,3760.00
2023-03-31T11:28:19.121Z,3620.00
2023-03-31T11:29:19.092Z,3228.00
2023-03-31T11:30:19.096Z,3616.00
2023-03-31T11:31:19.138Z,4472.00
2023-03-31T11:32:19.099Z,3636.00
2023-03-31T11:33:19.134Z,3908.00
2023-03-31T11:34:19.066Z,3960.00
2023-03-31T11:35:19.075Z,3976.00
2023-03-31T11:36:19.088Z,3316.00
2023-03-31T11:37:19.009Z,2980.00
2023-03-31T11:38:19.439Z,3136.00
2023-03-31T11:39:19.002Z,3412.00
2023-03-31T11:40:18.990Z,4696.00
2023-03-31T11:41:19.002Z,6256.00
2023-03-31T11:42:18.973Z,6172.00
2023-03-31T11:43:18.925Z,4624.00
2023-03-31T11:44:19.321Z,3548.00
2023-03-31T11:45:18.922Z,3340.00
2023-03-31T11:46:19.052Z,3408.00
2023-03-31T11:47:18.882Z,3264.00
2023-03-31T11:48:18.945Z,3376.00
2023-03-31T11:49:18.978Z,4456.00
2023-03-31T11:50:18.888Z,5472.00
2023-03-31T11:51:18.983Z,7528.00
2023-03-31T11:52:18.864Z,8768.00
2023-03-31T11:53:18.908Z,8068.00
2023-03-31T11:54:18.845Z,7588.00
2023-03-31T11:55:18.787Z,6956.00
2023-03-31T11:56:18.897Z,6796.00
2023-03-31T11:57:18.812Z,6928.00
2023-03-31T11:58:18.802Z,6784.00
2023-03-31T11:59:18.788Z,6860.00
2023-03-31T12:00:19.722Z,7024.00
2023-03-31T12:01:18.757Z,7008.00
2023-03-31T12:02:18.759Z,7424.00
2023-03-31T12:03:18.952Z,7272.00
2023-03-31T12:04:19.243Z,7200.00
2023-03-31T12:05:19.178Z,7276.00
2023-03-31T12:06:18.755Z,7068.00
2023-03-31T12:07:18.735Z,7000.00
2023-03-31T12:08:18.750Z,7096.00
2023-03-31T12:09:18.674Z,7048.00
2023-03-31T12:10:18.664Z,6956.00
2023-03-31T12:11:18.644Z,7024.00
2023-03-31T12:12:18.714Z,7284.00
2023-03-31T12:13:18.644Z,7392.00
2023-03-31T12:14:18.627Z,7344.00
2023-03-31T12:15:18.625Z,7084.00
2023-03-31T12:16:18.646Z,6880.00
2023-03-31T12:17:19.136Z,7224.00
2023-03-31T12:18:18.705Z,7160.00
2023-03-31T12:19:18.537Z,7128.00
2023-03-31T12:20:18.593Z,7088.00
2023-03-31T12:21:18.581Z,7088.00
2023-03-31T12:22:18.529Z,7084.00
2023-03-31T12:23:18.521Z,7072.00
2023-03-31T12:24:19.180Z,6968.00
2023-03-31T12:25:19.369Z,6820.00
2023-03-31T12:26:18.508Z,6812.00
2023-03-31T12:27:18.440Z,6832.00
2023-03-31T12:28:18.492Z,6812.00
2023-03-31T12:29:18.481Z,6896.00
2023-03-31T12:30:18.427Z,6956.00
2023-03-31T12:31:18.395Z,7084.00
2023-03-31T12:32:18.434Z,7164.00
2023-03-31T12:33:18.387Z,7288.00
2023-03-31T12:34:18.408Z,7508.00
2023-03-31T12:35:18.369Z,7672.00
2023-03-31T12:36:18.416Z,7752.00
2023-03-31T12:37:18.395Z,7844.00
2023-03-31T12:38:18.367Z,7768.00
2023-03-31T12:39:18.347Z,7700.00
2023-03-31T12:40:18.351Z,7628.00
2023-03-31T12:41:18.305Z,7396.00
2023-03-31T12:42:18.317Z,6868.00
2023-03-31T12:43:18.372Z,5972.00
2023-03-31T12:44:18.272Z,5728.00
2023-03-31T12:45:18.302Z,5080.00
2023-03-31T12:46:18.246Z,4000.00
2023-03-31T12:47:18.295Z,3296.00
2023-03-31T12:48:18.211Z,2940.00
2023-03-31T12:49:18.232Z,3204.00
2023-03-31T12:50:18.354Z,2968.00
2023-03-31T12:51:18.238Z,2356.00
2023-03-31T12:52:18.165Z,1760.00
2023-03-31T12:53:18.229Z,1400.00
2023-03-31T12:54:18.224Z,1512.00
2023-03-31T12:55:18.172Z,1336.00
2023-03-31T12:56:18.123Z,1260.00
2023-03-31T12:57:18.245Z,1172.00
2023-03-31T12:58:18.094Z,1236.00
2023-03-31T12:59:18.140Z,1504.00
2023-03-31T13:00:18.092Z,1900.00
2023-03-31T13:01:18.150Z,2208.00
2023-03-31T13:02:18.092Z,2388.00
2023-03-31T13:03:18.106Z,2988.00
2023-03-31T13:04:18.056Z,3516.00
2023-03-31T13:05:18.090Z,3876.00
2023-03-31T13:06:19.437Z,3968.00
2023-03-31T13:07:27.800Z,4276.00
2023-03-31T13:08:18.997Z,4968.00
2023-03-31T13:09:18.046Z,5944.00
2023-03-31T13:10:18.006Z,6732.00
2023-03-31T13:11:18.004Z,7228.00
2023-03-31T13:12:17.981Z,7380.00
2023-03-31T13:13:17.955Z,7364.00
2023-03-31T13:14:17.978Z,7072.00
2023-03-31T13:15:17.944Z,6860.00
2023-03-31T13:16:18.422Z,6712.00
2023-03-31T13:17:18.046Z,6660.00
2023-03-31T13:18:17.951Z,6684.00
2023-03-31T13:19:17.905Z,6788.00
2023-03-31T13:20:17.932Z,6864.00
2023-03-31T13:21:18.190Z,6776.00
2023-03-31T13:22:17.978Z,6736.00
2023-03-31T13:23:17.926Z,6756.00
2023-03-31T13:24:17.837Z,6664.00
2023-03-31T13:25:17.838Z,6556.00
2023-03-31T13:26:18.601Z,6476.00
2023-03-31T13:27:17.813Z,6400.00
2023-03-31T13:28:17.780Z,6428.00
2023-03-31T13:29:17.772Z,6520.00
2023-03-31T13:30:17.830Z,6668.00
2023-03-31T13:31:17.897Z,6676.00
2023-03-31T13:32:17.717Z,6664.00
2023-03-31T13:33:18.457Z,6724.00
2023-03-31T13:34:17.702Z,6864.00
2023-03-31T13:35:17.751Z,7020.00
2023-03-31T13:36:17.704Z,6868.00
2023-03-31T13:37:17.676Z,6744.00
2023-03-31T13:38:17.686Z,6648.00
2023-03-31T13:39:17.675Z,6664.00
2023-03-31T13:40:17.627Z,6344.00
2023-03-31T13:41:17.670Z,5712.00
2023-03-31T13:42:17.616Z,5136.00
2023-03-31T13:43:17.618Z,4876.00
2023-03-31T13:44:17.645Z,5296.00
2023-03-31T13:45:17.617Z,5300.00
2023-03-31T13:46:17.786Z,5512.00
2023-03-31T13:47:18.290Z,5836.00
2023-03-31T13:48:17.539Z,6096.00
2023-03-31T13:49:17.570Z,6224.00
2023-03-31T13:50:17.506Z,6356.00
2023-03-31T13:51:17.545Z,6476.00
2023-03-31T13:52:17.520Z,6228.00
2023-03-31T13:53:17.486Z,5856.00
2023-03-31T13:54:17.531Z,5264.00
2023-03-31T13:55:17.835Z,4688.00
2023-03-31T13:56:17.475Z,4220.00
2023-03-31T13:57:17.526Z,3084.00
2023-03-31T13:58:32.894Z,2708.00
2023-03-31T13:59:18.526Z,2500.00
2023-03-31T14:00:17.432Z,2308.00
2023-03-31T14:01:17.482Z,2104.00
2023-03-31T14:02:17.652Z,1744.00
2023-03-31T14:03:17.469Z,2012.00
2023-03-31T14:04:17.364Z,2680.00
2023-03-31T14:05:17.520Z,3028.00
2023-03-31T14:06:17.330Z,2940.00
2023-03-31T14:07:18.186Z,3644.00
2023-03-31T14:08:17.316Z,4456.00
2023-03-31T14:09:17.311Z,4700.00
2023-03-31T14:10:17.285Z,4224.00
2023-03-31T14:11:17.428Z,4704.00
2023-03-31T14:12:17.299Z,6008.00
2023-03-31T14:13:18.680Z,6324.00
2023-03-31T14:14:17.256Z,6360.00
2023-03-31T14:15:17.272Z,6116.00
2023-03-31T14:16:17.254Z,6004.00
2023-03-31T14:17:17.260Z,5984.00
2023-03-31T14:18:17.278Z,6244.00
2023-03-31T14:19:17.236Z,6536.00
2023-03-31T14:20:17.188Z,6624.00
2023-03-31T14:21:17.246Z,6692.00
2023-03-31T14:22:17.149Z,6708.00
2023-03-31T14:23:17.175Z,6460.00
2023-03-31T14:24:17.161Z,5980.00
2023-03-31T14:25:17.242Z,5472.00
2023-03-31T14:26:17.105Z,5056.00
2023-03-31T14:27:17.237Z,4212.00
2023-03-31T14:28:18.101Z,3428.00
2023-03-31T14:29:17.130Z,3392.00
2023-03-31T14:30:17.138Z,3532.00
2023-03-31T14:31:17.111Z,3524.00
2023-03-31T14:32:17.122Z,3452.00
2023-03-31T14:33:17.085Z,3452.00
2023-03-31T14:34:17.152Z,3564.00
2023-03-31T14:35:17.230Z,3772.00
2023-03-31T14:36:17.835Z,4280.00
2023-03-31T14:37:17.021Z,4668.00
2023-03-31T14:38:17.882Z,4784.00
2023-03-31T14:39:17.819Z,4688.00
2023-03-31T14:40:16.957Z,4552.00
2023-03-31T14:41:17.839Z,4480.00
2023-03-31T14:42:16.932Z,4468.00
2023-03-31T14:43:16.961Z,4416.00
2023-03-31T14:44:16.974Z,4460.00
2023-03-31T14:45:17.704Z,4312.00
2023-03-31T14:46:17.170Z,4196.00
2023-03-31T14:47:16.914Z,4132.00
2023-03-31T14:48:16.906Z,4120.00
2023-03-31T14:49:17.837Z,4396.00
2023-03-31T14:50:16.888Z,4680.00
2023-03-31T14:51:17.722Z,5084.00
2023-03-31T14:52:16.815Z,5168.00
2023-03-31T14:53:16.828Z,5112.00
2023-03-31T14:54:16.787Z,5008.00
2023-03-31T14:55:16.876Z,4864.00
2023-03-31T14:56:16.795Z,4764.00
2023-03-31T14:57:16.825Z,4456.00
2023-03-31T14:58:16.763Z,4380.00
2023-03-31T14:59:16.747Z,4388.00
2023-03-31T15:00:17.120Z,4476.00
2023-03-31T15:01:16.799Z,4496.00
2023-03-31T15:02:16.728Z,4452.00
2023-03-31T15:03:16.765Z,4048.00
2023-03-31T15:04:16.678Z,3568.00
2023-03-31T15:05:16.751Z,3060.00
2023-03-31T15:06:16.743Z,2284.00
2023-03-31T15:07:16.666Z,1576.00
2023-03-31T15:08:16.811Z,1160.00
2023-03-31T15:09:16.685Z,988.00
2023-03-31T15:10:16.669Z,984.00
2023-03-31T15:11:19.072Z,928.00
2023-03-31T15:12:16.595Z,868.00
2023-03-31T15:13:16.666Z,836.00
2023-03-31T15:14:16.785Z,688.00
2023-03-31T15:15:16.588Z,576.00
2023-03-31T15:16:16.594Z,572.00
2023-03-31T15:17:16.636Z,540.00
2023-03-31T15:18:16.561Z,564.00
2023-03-31T15:19:16.556Z,752.00
2023-03-31T15:20:17.407Z,1100.00
2023-03-31T15:21:16.621Z,1652.00
2023-03-31T15:22:16.652Z,2296.00
2023-03-31T15:23:16.491Z,2636.00
2023-03-31T15:24:16.545Z,2816.00
2023-03-31T15:25:16.479Z,2936.00
2023-03-31T15:26:16.653Z,3000.00
2023-03-31T15:28:17.428Z,3076.00
2023-03-31T15:29:17.454Z,3172.00
2023-03-31T15:30:16.414Z,3152.00
2023-03-31T15:31:16.538Z,3244.00
2023-03-31T15:32:16.541Z,3152.00
2023-03-31T15:34:17.450Z,2960.00
2023-03-31T15:36:16.348Z,2804.00
2023-03-31T15:37:16.342Z,2752.00
2023-03-31T15:38:16.436Z,2512.00
2023-03-31T15:39:16.331Z,2308.00
2023-03-31T15:40:16.286Z,2216.00
2023-03-31T15:41:16.279Z,2140.00
2023-03-31T15:42:16.308Z,2096.00
2023-03-31T15:43:25.470Z,1820.00
2023-03-31T15:44:17.218Z,1516.00
2023-03-31T15:45:16.287Z,1600.00
2023-03-31T15:46:16.277Z,1764.00
2023-03-31T15:47:16.277Z,1868.00
2023-03-31T15:48:16.196Z,1836.00
2023-03-31T15:49:16.482Z,2212.00
2023-03-31T15:50:16.279Z,2056.00
2023-03-31T15:51:16.196Z,1768.00
2023-03-31T15:52:16.203Z,1632.00
2023-03-31T15:53:16.143Z,1728.00
2023-03-31T15:54:16.175Z,1596.00
2023-03-31T15:55:16.141Z,1364.00
2023-03-31T15:56:16.133Z,1276.00
2023-03-31T15:57:16.112Z,1168.00
2023-03-31T15:58:16.149Z,1348.00
2023-03-31T15:59:16.080Z,1068.00
2023-03-31T16:00:16.050Z,1108.00
2023-03-31T16:01:16.147Z,1188.00
2023-03-31T16:02:16.030Z,1136.00
2023-03-31T16:03:16.037Z,860.00
2023-03-31T16:04:16.089Z,856.00
2023-03-31T16:06:16.003Z,768.00
2023-03-31T16:07:16.121Z,1132.00
2023-03-31T16:08:15.968Z,1008.00
2023-03-31T16:09:15.995Z,864.00
2023-03-31T16:10:16.722Z,728.00
2023-03-31T16:11:15.973Z,824.00
2023-03-31T16:12:15.934Z,808.00
2023-03-31T16:13:15.920Z,644.00
2023-03-31T16:14:15.925Z,828.00
2023-03-31T16:15:15.946Z,780.00
2023-03-31T16:16:15.895Z,792.00
2023-03-31T16:17:15.876Z,892.00
2023-03-31T16:18:15.864Z,808.00
2023-03-31T16:19:15.860Z,704.00
2023-03-31T16:20:15.846Z,884.00
2023-03-31T16:21:15.858Z,912.00
2023-03-31T16:22:15.817Z,776.00
2023-03-31T16:23:15.873Z,776.00
2023-03-31T16:24:15.814Z,752.00
2023-03-31T16:25:15.797Z,784.00
2023-03-31T16:26:15.765Z,708.00
2023-03-31T16:27:15.812Z,780.00
2023-03-31T16:28:15.737Z,716.00
2023-03-31T16:29:16.427Z,684.00
2023-03-31T16:30:15.788Z,660.00
2023-03-31T16:31:15.761Z,696.00
2023-03-31T16:32:15.712Z,712.00
2023-03-31T16:33:15.703Z,644.00
2023-03-31T16:34:15.736Z,628.00
2023-03-31T16:35:15.684Z,660.00
2023-03-31T16:36:15.638Z,700.00
2023-03-31T16:37:15.757Z,728.00
2023-03-31T16:38:15.625Z,656.00
2023-03-31T16:39:15.656Z,612.00
2023-03-31T16:40:15.703Z,544.00
2023-03-31T16:41:15.648Z,520.00
2023-03-31T16:42:15.586Z,584.00
2023-03-31T16:43:15.643Z,588.00
2023-03-31T16:44:15.591Z,544.00
2023-03-31T16:45:15.611Z,492.00
2023-03-31T16:46:15.587Z,444.00
2023-03-31T16:47:27.457Z,304.00
2023-03-31T16:48:17.456Z,284.00
2023-03-31T16:49:15.526Z,268.00
2023-03-31T16:50:15.565Z,300.00
2023-03-31T16:51:15.862Z,256.00
2023-03-31T16:52:15.468Z,252.00
2023-03-31T16:53:15.521Z,260.00
2023-03-31T16:54:15.455Z,272.00
2023-03-31T16:55:15.467Z,236.00
2023-03-31T16:56:15.455Z,232.00
2023-03-31T16:57:15.432Z,212.00
2023-03-31T16:58:15.399Z,244.00
2023-03-31T16:59:15.465Z,240.00
2023-03-31T17:00:15.431Z,252.00
2023-03-31T17:01:15.409Z,252.00
2023-03-31T17:02:15.443Z,264.00
2023-03-31T17:03:15.378Z,316.00
2023-03-31T17:04:15.357Z,284.00
2023-03-31T17:05:15.317Z,304.00
2023-03-31T17:06:15.397Z,304.00
2023-03-31T17:07:15.558Z,308.00
2023-03-31T17:08:15.336Z,316.00
2023-03-31T17:09:15.273Z,332.00
2023-03-31T17:10:15.301Z,356.00
2023-03-31T17:11:16.238Z,376.00
2023-03-31T17:12:15.450Z,444.00
2023-03-31T17:13:15.242Z,436.00
2023-03-31T17:14:15.267Z,400.00
2023-03-31T17:15:15.224Z,340.00
2023-03-31T17:16:19.143Z,324.00
2023-03-31T17:17:17.975Z,260.00
2023-03-31T17:18:15.285Z,236.00
2023-03-31T17:19:15.160Z,180.00
2023-03-31T17:20:15.180Z,144.00
2023-03-31T17:21:15.166Z,152.00
2023-03-31T17:22:15.167Z,132.00
2023-03-31T17:23:15.122Z,148.00
2023-03-31T17:24:15.172Z,136.00
2023-03-31T17:25:15.101Z,152.00
2023-03-31T17:26:15.174Z,144.00
2023-03-31T17:27:15.086Z,104.00
2023-03-31T17:28:15.237Z,108.00
2023-03-31T17:29:16.650Z,148.00
2023-03-31T17:30:15.284Z,196.00
2023-03-31T17:31:15.015Z,168.00
2023-03-31T17:32:15.100Z,132.00
2023-03-31T17:33:15.088Z,164.00
2023-03-31T17:34:15.028Z,144.00
2023-03-31T17:35:15.262Z,100.00
2023-03-31T17:36:14.982Z,80.00
2023-03-31T17:37:14.986Z,88.00
2023-03-31T17:38:14.966Z,76.00
2023-03-31T17:39:14.943Z,68.00
2023-03-31T17:40:14.951Z,92.00
2023-03-31T17:41:14.923Z,92.00
2023-03-31T17:42:14.947Z,72.00
2023-03-31T17:43:14.975Z,92.00
2023-03-31T17:44:14.909Z,68.00
2023-03-31T17:45:14.886Z,68.00
2023-03-31T17:46:14.911Z,68.00
2023-03-31T17:47:14.960Z,68.00
2023-03-31T17:48:14.863Z,52.00
2023-03-31T17:49:14.814Z,56.00
2023-03-31T17:50:14.830Z,40.00
2023-03-31T17:51:14.810Z,28.00
2023-03-31T17:52:14.851Z,28.00
2023-03-31T17:53:15.634Z,32.00
2023-03-31T17:54:14.783Z,36.00
2023-03-31T17:55:14.761Z,28.00
2023-03-31T17:56:14.758Z,24.00
2023-03-31T17:57:14.771Z,16.00
2023-03-31T17:58:14.806Z,20.00
2023-03-31T17:59:14.718Z,16.00
2023-03-31T18:00:14.715Z,16.00
2023-03-31T18:01:14.759Z,20.00
2023-03-31T18:02:14.716Z,20.00
2023-03-31T18:03:14.724Z,16.00
2023-03-31T18:04:14.707Z,12.00
2023-03-31T18:05:16.997Z,12.00
2023-03-31T18:06:14.682Z,8.00
2023-03-31T18:07:14.648Z,4.00
2023-03-31T18:08:14.658Z,8.00
2023-03-31T18:09:14.863Z,8.00
2023-03-31T18:10:14.685Z,4.00
2023-03-31T18:11:14.861Z,8.00
2023-03-31T18:12:14.657Z,4.00
2023-03-31T18:13:14.553Z,4.00
2023-03-31T18:14:14.597Z,4.00
2023-03-31T18:15:14.540Z,4.00
2023-03-31T18:16:14.644Z,4.00
2023-03-31T18:17:14.510Z,0.00
2023-03-31T18:18:14.656Z,0.00
2023-03-31T18:19:14.497Z,0.00
2023-03-31T18:20:14.519Z,0.00
2023-03-31T18:21:14.445Z,0.00
2023-03-31T18:22:14.753Z,0.00
2023-03-31T18:23:14.438Z,0.00
2023-03-31T18:24:14.594Z,0.00
2023-03-31T18:25:14.527Z,0.00
2023-03-31T18:26:14.823Z,0.00
2023-03-31T18:27:14.456Z,0.00
2023-03-31T18:28:14.495Z,0.00
2023-03-31T18:29:14.605Z,0.00
2023-03-31T18:30:14.377Z,0.00
2023-03-31T18:31:14.396Z,0.00
2023-03-31T18:32:14.459Z,0.00
2023-03-31T18:33:14.490Z,0.00
2023-03-31T18:34:14.328Z,0.00
2023-03-31T18:35:14.345Z,0.00
2023-03-31T18:36:14.422Z,0.00
2023-03-31T18:37:14.354Z,0.00
2023-03-31T18:38:14.313Z,0.00
2023-03-31T18:39:14.265Z,0.00
2023-03-31T18:40:14.280Z,0.00
2023-03-31T18:41:14.303Z,0.00
2023-03-31T18:42:14.255Z,0.00
2023-03-31T18:43:14.217Z,0.00
2023-03-31T18:44:14.265Z,0.00
2023-03-31T18:45:14.260Z,0.00
2023-03-31T18:46:14.267Z,0.00
2023-03-31T18:47:14.228Z,0.00
2023-03-31T18:48:14.360Z,0.00
2023-03-31T18:49:14.227Z,0.00
2023-03-31T18:50:14.169Z,0.00
2023-03-31T18:51:14.126Z,0.00
2023-03-31T18:52:14.154Z,0.00
2023-03-31T18:53:14.113Z,0.00
2023-03-31T18:54:14.436Z,0.00
2023-03-31T18:55:14.168Z,0.00
2023-03-31T18:56:14.143Z,0.00
2023-03-31T18:57:14.125Z,0.00
2023-03-31T18:58:14.066Z,0.00
2023-03-31T18:59:14.074Z,0.00
2023-03-31T19:00:14.064Z,0.00
2023-03-31T19:01:14.136Z,0.00
2023-03-31T19:02:14.126Z,0.00
2023-03-31T19:03:14.184Z,0.00
2023-03-31T19:04:14.048Z,0.00
2023-03-31T19:05:14.217Z,0.00
2023-03-31T19:06:14.095Z,0.00